Topisaw, Mississippi
Current Conditions -  °F | °C
As of 9:53 AM on Friday 24 Oct 2014 (Local Time) from KMCB Reporting Station
Clear Clear  
Wind Chill: 61°   Ceiling: Unl
Heat Index: 61°   Visibility: 10mi
Dew Point: 48°   Wind: 6mph
Humidity: 62%   Direction: 20°NNE
Pressure: 30.14"   Gusts: NA
Location:  31.2993°N, 90.4958°W
Report Text: KMCB 241453Z AUTO 02005KT 10SM CLR 16/09 A3014 RMK AO2 SLP204 T01610089 51010
Loading
Personal Weather Stations






























Interactive Weather Map
Tropical Storm Tracking
New forecast layout! Learn more

10-Day Weather Forecast

Advertisements
Track Severe Weather on mobile